createdAt,value
2022-10-25T00:01:00.124Z,1.42
2022-10-25T00:02:02.173Z,1.80
2022-10-25T00:03:05.363Z,1.77
2022-10-25T00:04:07.343Z,1.70
2022-10-25T00:05:14.339Z,1.48
2022-10-25T00:06:17.015Z,1.80
2022-10-25T00:07:20.137Z,1.38
2022-10-25T00:08:22.073Z,1.63
2022-10-25T00:09:24.984Z,1.58
2022-10-25T00:10:26.929Z,1.83
2022-10-25T00:11:32.692Z,1.83
2022-10-25T00:12:34.803Z,1.63
2022-10-25T00:13:39.453Z,1.67
2022-10-25T00:14:41.383Z,1.40
2022-10-25T00:15:44.910Z,1.30
2022-10-25T00:16:46.869Z,1.40
2022-10-25T00:17:50.141Z,1.38
2022-10-25T00:18:52.786Z,1.08
2022-10-25T00:19:55.790Z,1.63
2022-10-25T00:20:57.757Z,1.45
2022-10-25T00:22:00.688Z,1.60
2022-10-25T00:23:02.654Z,1.25
2022-10-25T00:24:06.081Z,1.15
2022-10-25T00:25:09.450Z,1.75
2022-10-25T00:26:13.106Z,1.35
2022-10-25T00:27:15.069Z,1.30
2022-10-25T00:28:17.971Z,1.50
2022-10-25T00:29:21.353Z,1.58
2022-10-25T00:30:24.270Z,1.58
2022-10-25T00:31:26.181Z,1.40
2022-10-25T00:32:29.124Z,1.52
2022-10-25T00:33:31.244Z,1.40
2022-10-25T00:34:34.138Z,1.80
2022-10-25T00:35:37.558Z,1.67
2022-10-25T00:36:39.562Z,1.25
2022-10-25T00:37:42.482Z,1.30
2022-10-25T00:38:45.786Z,1.30
2022-10-25T00:39:48.708Z,1.15
2022-10-25T00:40:50.640Z,1.40
2022-10-25T00:41:53.605Z,1.40
2022-10-25T00:42:55.535Z,2.35
2022-10-25T00:44:37.026Z,1.20
2022-10-25T00:45:41.318Z,1.35
2022-10-25T00:46:44.333Z,1.23
2022-10-25T00:47:50.850Z,1.50
2022-10-25T00:48:57.243Z,0.93
2022-10-25T00:50:03.900Z,0.70
2022-10-25T00:51:07.365Z,1.40
2022-10-25T00:52:10.309Z,1.63
2022-10-25T00:53:17.692Z,1.00
2022-10-25T00:54:24.056Z,1.05
2022-10-25T00:55:28.537Z,1.20
2022-10-25T00:56:35.614Z,1.05
2022-10-25T00:57:43.264Z,1.25
2022-10-25T00:58:50.250Z,1.40
2022-10-25T00:59:52.295Z,1.15
2022-10-25T01:00:56.941Z,1.15
2022-10-25T01:01:59.130Z,0.93
2022-10-25T01:03:02.914Z,1.25
2022-10-25T01:04:09.820Z,1.20
2022-10-25T01:05:12.104Z,0.90
2022-10-25T01:06:21.993Z,0.93
2022-10-25T01:07:24.153Z,1.00
2022-10-25T01:08:27.718Z,1.10
2022-10-25T01:09:32.234Z,1.10
2022-10-25T01:10:35.181Z,0.90
2022-10-25T01:11:38.385Z,0.82
2022-10-25T01:12:40.385Z,0.93
2022-10-25T01:13:43.470Z,1.00
2022-10-25T01:14:48.730Z,1.05
2022-10-25T01:16:05.774Z,1.30
2022-10-25T01:17:12.808Z,1.70
2022-10-25T01:18:19.541Z,2.30
2022-10-25T01:19:42.163Z,1.00
2022-10-25T01:21:10.415Z,1.10
2022-10-25T01:22:19.938Z,1.10
2022-10-25T01:23:44.850Z,1.10
2022-10-25T01:25:14.487Z,1.00
2022-10-25T01:26:44.157Z,1.00
2022-10-25T01:28:05.394Z,1.00
2022-10-25T01:29:38.330Z,1.00
2022-10-25T01:31:07.324Z,0.88
2022-10-25T01:32:15.053Z,1.30
2022-10-25T01:33:25.430Z,1.10
2022-10-25T01:34:33.042Z,1.20
2022-10-25T01:35:43.972Z,1.20
2022-10-25T01:36:55.826Z,0.80
2022-10-25T01:38:14.185Z,1.20
2022-10-25T01:39:19.981Z,0.98
2022-10-25T01:40:27.849Z,0.90
2022-10-25T01:41:40.027Z,0.80
2022-10-25T01:42:50.225Z,0.77
2022-10-25T01:44:02.122Z,0.98
2022-10-25T01:45:11.983Z,0.90
2022-10-25T01:46:21.315Z,0.73
2022-10-25T01:47:27.785Z,1.15
2022-10-25T01:48:35.923Z,1.20
2022-10-25T01:49:45.351Z,0.82
2022-10-25T01:50:48.146Z,0.70
2022-10-25T01:51:51.043Z,1.20
2022-10-25T01:54:00.797Z,1.30
2022-10-25T01:55:05.329Z,1.08
2022-10-25T01:56:08.570Z,1.10
2022-10-25T01:57:25.408Z,1.00
2022-10-25T01:58:38.416Z,0.90
2022-10-25T02:00:03.355Z,1.10
2022-10-25T02:01:17.951Z,0.90
2022-10-25T02:02:28.897Z,1.00
2022-10-25T02:03:36.918Z,1.38
2022-10-25T02:04:47.567Z,1.15
2022-10-25T02:06:04.458Z,1.63
2022-10-25T02:07:09.703Z,1.15
2022-10-25T02:08:20.244Z,0.93
2022-10-25T02:09:33.111Z,1.00
2022-10-25T02:10:40.003Z,1.15
2022-10-25T02:11:42.176Z,1.10
2022-10-25T02:12:54.649Z,0.85
2022-10-25T02:14:07.829Z,0.90
2022-10-25T02:15:14.366Z,1.10
2022-10-25T02:16:20.504Z,0.90
2022-10-25T02:17:28.465Z,1.33
2022-10-25T02:18:35.676Z,1.10
2022-10-25T02:19:42.241Z,1.35
2022-10-25T02:20:46.936Z,1.20
2022-10-25T02:21:52.465Z,1.58
2022-10-25T02:22:55.481Z,1.20
2022-10-25T02:24:00.954Z,1.13
2022-10-25T02:25:04.383Z,1.45
2022-10-25T02:26:10.152Z,1.13
2022-10-25T02:27:13.719Z,1.25
2022-10-25T02:28:20.408Z,1.38
2022-10-25T02:29:23.996Z,1.20
2022-10-25T02:30:27.022Z,1.00
2022-10-25T02:31:31.037Z,1.40
2022-10-25T02:32:35.414Z,1.27
2022-10-25T02:33:37.711Z,1.45
2022-10-25T02:34:41.389Z,1.25
2022-10-25T02:35:43.306Z,1.67
2022-10-25T02:36:49.597Z,1.23
2022-10-25T02:37:52.542Z,1.25
2022-10-25T02:38:54.954Z,1.10
2022-10-25T02:39:57.908Z,1.50
2022-10-25T02:41:02.697Z,1.30
2022-10-25T02:42:05.965Z,1.55
2022-10-25T02:43:07.892Z,1.30
2022-10-25T02:44:10.870Z,1.58
2022-10-25T02:45:12.857Z,1.17
2022-10-25T02:46:18.192Z,1.20
2022-10-25T02:47:20.136Z,1.50
2022-10-25T02:48:24.449Z,1.30
2022-10-25T02:49:27.352Z,0.90
2022-10-25T02:50:29.392Z,1.02
2022-10-25T02:51:32.515Z,1.15
2022-10-25T02:52:34.510Z,0.95
2022-10-25T02:53:37.861Z,1.08
2022-10-25T02:54:39.754Z,1.20
2022-10-25T02:55:42.746Z,0.90
2022-10-25T02:56:44.700Z,1.52
2022-10-25T02:57:47.653Z,1.60
2022-10-25T02:58:50.825Z,0.90
2022-10-25T02:59:53.758Z,1.10
2022-10-25T03:00:55.754Z,1.50
2022-10-25T03:01:58.779Z,0.95
2022-10-25T03:03:00.749Z,1.60
2022-10-25T03:04:05.221Z,1.20
2022-10-25T03:05:07.755Z,1.10
2022-10-25T03:06:11.366Z,1.20
2022-10-25T03:07:13.407Z,1.00
2022-10-25T03:08:16.365Z,1.10
2022-10-25T03:09:18.352Z,1.45
2022-10-25T03:10:21.304Z,1.15
2022-10-25T03:11:23.316Z,1.05
2022-10-25T03:12:26.217Z,1.55
2022-10-25T03:13:28.198Z,0.93
2022-10-25T03:14:31.109Z,0.80
2022-10-25T03:15:33.071Z,1.17
2022-10-25T03:16:36.064Z,1.17
2022-10-25T03:17:38.023Z,1.00
2022-10-25T03:18:40.980Z,0.75
2022-10-25T03:19:45.279Z,1.48
2022-10-25T03:20:47.173Z,1.73
2022-10-25T03:21:50.326Z,1.20
2022-10-25T03:22:52.247Z,1.35
2022-10-25T03:23:55.153Z,1.10
2022-10-25T03:24:58.111Z,1.10
2022-10-25T03:26:00.707Z,1.40
2022-10-25T03:27:03.686Z,1.27
2022-10-25T03:28:05.865Z,1.30
2022-10-25T03:29:08.821Z,1.58
2022-10-25T03:30:12.864Z,1.10
2022-10-25T03:31:18.021Z,1.13
2022-10-25T03:32:19.971Z,1.58
2022-10-25T03:33:23.009Z,1.25
2022-10-25T03:34:25.031Z,1.23
2022-10-25T03:35:29.535Z,1.00
2022-10-25T03:36:32.550Z,1.02
2022-10-25T03:37:34.709Z,1.02
2022-10-25T03:38:37.700Z,1.30
2022-10-25T03:39:39.594Z,1.25
2022-10-25T03:40:43.050Z,1.20
2022-10-25T03:41:45.946Z,1.27
2022-10-25T03:42:47.878Z,1.30
2022-10-25T03:43:50.806Z,1.00
2022-10-25T03:44:52.772Z,1.38
2022-10-25T03:45:55.786Z,1.58
2022-10-25T03:46:57.725Z,1.23
2022-10-25T03:48:00.720Z,1.70
2022-10-25T03:49:02.721Z,1.45
2022-10-25T03:50:06.212Z,1.40
2022-10-25T03:51:09.501Z,1.33
2022-10-25T03:52:12.863Z,1.50
2022-10-25T03:53:14.832Z,1.55
2022-10-25T03:54:17.754Z,1.48
2022-10-25T03:55:19.749Z,1.45
2022-10-25T03:56:23.413Z,1.70
2022-10-25T03:57:25.410Z,2.05
2022-10-25T03:58:28.326Z,1.75
2022-10-25T03:59:30.300Z,1.52
2022-10-25T04:00:33.336Z,1.75
2022-10-25T04:01:35.469Z,1.65
2022-10-25T04:02:38.485Z,2.08
2022-10-25T04:03:40.513Z,1.88
2022-10-25T04:04:43.481Z,1.65
2022-10-25T04:05:45.448Z,1.63
2022-10-25T04:06:49.737Z,2.55
2022-10-25T04:07:51.823Z,1.60
2022-10-25T04:08:54.743Z,1.20
2022-10-25T04:09:56.765Z,1.42
2022-10-25T04:10:59.772Z,1.77
2022-10-25T04:12:01.760Z,1.92
2022-10-25T04:13:04.729Z,1.83
2022-10-25T04:14:06.661Z,1.30
2022-10-25T04:15:10.908Z,2.60
2022-10-25T04:16:17.040Z,2.10
2022-10-25T04:17:20.921Z,1.67
2022-10-25T04:18:23.878Z,2.25
2022-10-25T04:19:25.797Z,1.70
2022-10-25T04:20:28.725Z,2.08
2022-10-25T04:21:30.674Z,2.50
2022-10-25T04:23:43.053Z,1.95
2022-10-25T04:24:44.971Z,1.95
2022-10-25T04:25:47.910Z,2.30
2022-10-25T04:26:49.921Z,1.65
2022-10-25T04:27:52.845Z,1.98
2022-10-25T04:28:55.710Z,2.55
2022-10-25T04:29:58.609Z,2.10
2022-10-25T04:31:00.980Z,2.58
2022-10-25T04:32:04.202Z,3.25
2022-10-25T04:33:06.410Z,3.67
2022-10-25T04:34:09.333Z,2.67
2022-10-25T04:35:12.736Z,3.78
2022-10-25T04:36:15.677Z,3.05
2022-10-25T04:37:19.022Z,3.95
2022-10-25T04:38:23.560Z,3.72
2022-10-25T04:39:26.315Z,3.30
2022-10-25T04:40:29.233Z,3.75
2022-10-25T04:41:31.264Z,4.15
2022-10-25T04:42:34.825Z,3.95
2022-10-25T04:43:37.905Z,3.58
2022-10-25T04:44:39.828Z,3.60
2022-10-25T04:45:42.761Z,3.20
2022-10-25T04:46:47.792Z,3.80
2022-10-25T04:47:51.874Z,4.13
2022-10-25T04:48:53.793Z,3.40
2022-10-25T04:49:56.719Z,3.88
2022-10-25T04:51:00.029Z,3.33
2022-10-25T04:52:02.933Z,2.92
2022-10-25T04:53:04.980Z,2.72
2022-10-25T04:54:09.287Z,3.22
2022-10-25T04:55:11.254Z,3.50
2022-10-25T04:56:15.365Z,2.92
2022-10-25T04:57:17.273Z,3.65
2022-10-25T04:58:21.235Z,3.20
2022-10-25T04:59:23.153Z,2.88
2022-10-25T05:00:27.042Z,3.45
2022-10-25T05:01:29.094Z,3.20
2022-10-25T05:02:32.283Z,2.67
2022-10-25T05:03:35.068Z,3.40
2022-10-25T05:04:38.109Z,3.42
2022-10-25T05:05:53.128Z,2.85
2022-10-25T05:06:56.387Z,2.67
2022-10-25T05:07:58.482Z,2.95
2022-10-25T05:09:01.728Z,2.80
2022-10-25T05:10:07.026Z,3.13
2022-10-25T05:11:10.467Z,3.28
2022-10-25T05:12:13.394Z,2.60
2022-10-25T05:13:15.338Z,3.53
2022-10-25T05:14:23.485Z,2.60
2022-10-25T05:15:25.458Z,2.95
2022-10-25T05:16:28.417Z,2.78
2022-10-25T05:17:30.342Z,3.75
2022-10-25T05:18:34.153Z,2.92
2022-10-25T05:19:37.278Z,4.03
2022-10-25T05:20:39.231Z,3.58
2022-10-25T05:21:42.198Z,2.53
2022-10-25T05:22:44.258Z,2.78
2022-10-25T05:23:47.977Z,3.25
2022-10-25T05:24:49.903Z,2.85
2022-10-25T05:26:03.593Z,3.17
2022-10-25T05:27:06.668Z,3.05
2022-10-25T05:28:08.611Z,3.00
2022-10-25T05:29:13.245Z,3.05
2022-10-25T05:30:15.155Z,3.10
2022-10-25T05:31:20.164Z,3.38
2022-10-25T05:32:23.061Z,4.18
2022-10-25T05:33:25.013Z,4.07
2022-10-25T05:34:28.227Z,4.53
2022-10-25T05:35:30.186Z,3.95
2022-10-25T05:36:33.457Z,4.50
2022-10-25T05:37:35.441Z,4.00
2022-10-25T05:38:38.624Z,4.07
2022-10-25T05:39:41.784Z,3.40
2022-10-25T05:40:43.777Z,3.97
2022-10-25T05:41:49.610Z,3.83
2022-10-25T05:42:55.319Z,3.30
2022-10-25T05:43:59.759Z,3.53
2022-10-25T05:45:01.725Z,2.63
2022-10-25T05:46:06.799Z,3.20
2022-10-25T05:47:08.842Z,3.60
2022-10-25T05:48:11.750Z,3.80
2022-10-25T05:49:14.710Z,3.17
2022-10-25T05:50:16.717Z,3.20
2022-10-25T05:51:33.287Z,3.45
2022-10-25T05:52:37.414Z,3.25
2022-10-25T05:53:43.369Z,3.17
2022-10-25T05:54:46.299Z,3.35
2022-10-25T05:55:48.212Z,3.55
2022-10-25T05:56:52.473Z,3.33
2022-10-25T05:57:54.451Z,4.05
2022-10-25T05:58:58.117Z,4.45
2022-10-25T06:00:00.096Z,3.60
2022-10-25T06:01:04.112Z,3.58
2022-10-25T06:02:07.121Z,3.00
2022-10-25T06:03:09.101Z,3.33
2022-10-25T06:04:12.531Z,2.90
2022-10-25T06:05:14.550Z,3.80
2022-10-25T06:06:18.403Z,3.42
2022-10-25T06:07:20.350Z,3.35
2022-10-25T06:08:23.290Z,3.97
2022-10-25T06:09:26.260Z,3.83
2022-10-25T06:10:28.171Z,4.38
2022-10-25T06:11:32.086Z,3.45
2022-10-25T06:12:35.432Z,3.60
2022-10-25T06:13:39.143Z,3.10
2022-10-25T06:14:41.126Z,3.67
2022-10-25T06:15:44.031Z,3.65
2022-10-25T06:16:46.993Z,4.35
2022-10-25T06:17:48.944Z,3.63
2022-10-25T06:18:51.981Z,3.33
2022-10-25T06:19:54.958Z,3.50
2022-10-25T06:21:00.489Z,3.25
2022-10-25T06:22:03.412Z,3.40
2022-10-25T06:23:08.018Z,3.50
2022-10-25T06:24:13.589Z,3.50
2022-10-25T06:25:15.628Z,3.22
2022-10-25T06:26:20.934Z,3.33
2022-10-25T06:27:23.207Z,3.38
2022-10-25T06:28:27.465Z,3.30
2022-10-25T06:29:30.357Z,3.20
2022-10-25T06:30:33.074Z,3.45
2022-10-25T06:31:36.000Z,3.17
2022-10-25T06:32:38.197Z,2.97
2022-10-25T06:33:41.773Z,3.38
2022-10-25T06:34:43.702Z,3.25
2022-10-25T06:35:46.594Z,3.25
2022-10-25T06:36:48.502Z,3.90
2022-10-25T06:37:51.440Z,3.80
2022-10-25T06:38:53.887Z,3.75
2022-10-25T06:39:56.806Z,3.78
2022-10-25T06:40:59.499Z,4.07
2022-10-25T06:42:02.450Z,3.88
2022-10-25T06:43:04.426Z,4.35
2022-10-25T06:44:09.087Z,4.05
2022-10-25T06:45:11.194Z,4.43
2022-10-25T06:46:19.347Z,4.85
2022-10-25T06:47:22.270Z,4.78
2022-10-25T06:48:24.508Z,4.05
2022-10-25T06:49:27.859Z,4.00
2022-10-25T06:50:29.800Z,4.00
2022-10-25T06:51:34.318Z,3.42
2022-10-25T06:52:36.253Z,4.50
2022-10-25T06:53:39.791Z,3.22
2022-10-25T06:54:41.753Z,4.00
2022-10-25T06:55:47.097Z,4.47
2022-10-25T06:56:49.053Z,3.95
2022-10-25T06:57:52.033Z,3.50
2022-10-25T06:58:54.480Z,4.88
2022-10-25T06:59:58.771Z,4.50
2022-10-25T07:01:02.510Z,4.38
2022-10-25T07:02:05.764Z,4.20
2022-10-25T07:03:08.868Z,4.72
2022-10-25T07:04:10.799Z,4.40
2022-10-25T07:05:13.721Z,3.83
2022-10-25T07:06:17.657Z,3.20
2022-10-25T07:07:20.617Z,3.67
2022-10-25T07:08:23.032Z,3.90
2022-10-25T07:09:26.643Z,3.95
2022-10-25T07:10:29.597Z,4.07
2022-10-25T07:11:32.629Z,3.60
2022-10-25T07:12:38.140Z,3.85
2022-10-25T07:13:40.120Z,3.95
2022-10-25T07:14:45.861Z,3.70
2022-10-25T07:15:49.337Z,4.82
2022-10-25T07:16:52.244Z,4.15
2022-10-25T07:17:54.976Z,3.85
2022-10-25T07:18:59.696Z,3.55
2022-10-25T07:20:01.794Z,4.53
2022-10-25T07:21:06.806Z,3.95
2022-10-25T07:22:09.730Z,3.42
2022-10-25T07:23:11.645Z,3.65
2022-10-25T07:24:15.100Z,3.95
2022-10-25T07:25:17.138Z,3.13
2022-10-25T07:26:22.836Z,3.55
2022-10-25T07:27:24.846Z,3.80
2022-10-25T07:28:28.381Z,3.40
2022-10-25T07:29:31.287Z,3.63
2022-10-25T07:30:33.351Z,3.97
2022-10-25T07:33:08.189Z,3.90
2022-10-25T07:34:14.293Z,3.75
2022-10-25T07:35:16.345Z,3.90
2022-10-25T07:36:19.703Z,3.50
2022-10-25T07:37:21.670Z,3.28
2022-10-25T07:38:27.691Z,3.33
2022-10-25T07:39:30.894Z,2.67
2022-10-25T07:40:32.810Z,2.90
2022-10-25T07:41:35.800Z,2.80
2022-10-25T07:42:38.713Z,2.65
2022-10-25T07:43:41.740Z,2.97
2022-10-25T07:45:51.611Z,2.67
2022-10-25T07:46:55.886Z,2.50
2022-10-25T07:47:57.860Z,2.13
2022-10-25T07:49:00.957Z,2.20
2022-10-25T07:50:03.035Z,2.78
2022-10-25T07:51:07.122Z,1.73
2022-10-25T07:52:11.401Z,1.90
2022-10-25T07:53:13.462Z,1.95
2022-10-25T07:54:16.391Z,1.70
2022-10-25T07:55:18.301Z,1.98
2022-10-25T07:56:23.447Z,2.00
2022-10-25T07:57:26.835Z,2.33
2022-10-25T07:58:28.823Z,2.05
2022-10-25T07:59:31.777Z,2.10
2022-10-25T08:00:35.530Z,1.90
2022-10-25T08:01:38.632Z,1.90
2022-10-25T08:02:42.942Z,2.00
2022-10-25T08:03:45.884Z,1.88
2022-10-25T08:04:51.039Z,2.00
2022-10-25T08:05:55.503Z,2.00
2022-10-25T08:07:01.006Z,1.70
2022-10-25T08:08:04.939Z,2.00
2022-10-25T08:09:14.982Z,1.58
2022-10-25T08:10:29.535Z,2.00
2022-10-25T08:11:32.450Z,2.08
2022-10-25T08:12:34.354Z,2.35
2022-10-25T08:13:37.712Z,2.10
2022-10-25T08:14:42.319Z,1.73
2022-10-25T08:15:50.175Z,1.80
2022-10-25T08:16:53.092Z,2.08
2022-10-25T08:18:00.619Z,1.92
2022-10-25T08:19:03.537Z,2.20
2022-10-25T08:20:06.308Z,2.40
2022-10-25T08:21:09.250Z,2.08
2022-10-25T08:22:11.149Z,2.00
2022-10-25T08:23:14.068Z,2.28
2022-10-25T08:24:17.104Z,2.45
2022-10-25T08:25:20.708Z,1.52
2022-10-25T08:26:26.751Z,2.15
2022-10-25T08:27:28.654Z,1.90
2022-10-25T08:28:32.306Z,1.67
2022-10-25T08:29:35.235Z,2.50
2022-10-25T08:30:38.253Z,2.30
2022-10-25T08:31:41.130Z,2.00
2022-10-25T08:32:44.035Z,1.85
2022-10-25T08:33:48.497Z,2.03
2022-10-25T08:34:50.407Z,2.45
2022-10-25T08:35:53.354Z,2.28
2022-10-25T08:36:55.257Z,1.88
2022-10-25T08:38:01.443Z,2.20
2022-10-25T08:39:04.401Z,1.73
2022-10-25T08:40:08.262Z,2.08
2022-10-25T08:41:17.586Z,2.00
2022-10-25T08:42:25.014Z,2.33
2022-10-25T08:43:53.392Z,1.65
2022-10-25T08:45:04.033Z,1.80
2022-10-25T08:46:13.680Z,2.30
2022-10-25T08:47:21.860Z,1.85
2022-10-25T08:48:29.077Z,1.60
2022-10-25T08:49:42.102Z,2.20
2022-10-25T08:50:48.739Z,1.77
2022-10-25T08:51:53.924Z,1.88
2022-10-25T08:52:59.074Z,1.80
2022-10-25T08:54:06.666Z,1.80
2022-10-25T08:55:15.861Z,2.47
2022-10-25T08:56:19.212Z,1.60
2022-10-25T08:57:25.154Z,1.90
2022-10-25T08:58:32.095Z,1.60
2022-10-25T08:59:39.707Z,1.73
2022-10-25T09:00:45.668Z,2.00
2022-10-25T09:01:52.661Z,1.98
2022-10-25T09:02:57.540Z,1.50
2022-10-25T09:03:59.972Z,2.42
2022-10-25T09:05:04.475Z,2.17
2022-10-25T09:06:16.005Z,2.22
2022-10-25T09:07:46.885Z,1.80
2022-10-25T09:09:04.093Z,1.67
2022-10-25T09:10:18.583Z,1.80
2022-10-25T09:11:34.617Z,1.60
2022-10-25T09:12:42.772Z,1.70
2022-10-25T09:13:51.985Z,1.50
2022-10-25T09:15:04.824Z,1.55
2022-10-25T09:16:16.194Z,1.95
2022-10-25T09:17:21.580Z,1.80
2022-10-25T09:18:36.763Z,1.58
2022-10-25T09:19:45.984Z,1.90
2022-10-25T09:20:54.446Z,1.48
2022-10-25T09:22:01.602Z,1.67
2022-10-25T09:23:13.173Z,1.98
2022-10-25T09:25:59.546Z,1.73
2022-10-25T09:27:07.462Z,2.10
2022-10-25T09:28:17.562Z,2.03
2022-10-25T09:29:29.013Z,2.00
2022-10-25T09:30:37.561Z,1.65
2022-10-25T09:31:42.997Z,2.10
2022-10-25T09:32:48.602Z,2.00
2022-10-25T09:34:01.486Z,1.70
2022-10-25T09:35:13.154Z,2.05
2022-10-25T09:36:16.998Z,1.88
2022-10-25T09:37:29.064Z,1.88
2022-10-25T09:38:38.829Z,1.80
2022-10-25T09:39:45.122Z,1.70
2022-10-25T09:40:51.658Z,1.70
2022-10-25T09:41:56.066Z,1.70
2022-10-25T09:43:03.871Z,1.50
2022-10-25T09:44:15.500Z,1.85
2022-10-25T09:45:22.804Z,1.88
2022-10-25T09:46:33.278Z,1.95
2022-10-25T09:47:44.292Z,1.65
2022-10-25T09:48:53.461Z,1.60
2022-10-25T09:50:00.112Z,1.35
2022-10-25T09:51:13.450Z,1.80
2022-10-25T09:52:25.622Z,1.70
2022-10-25T09:55:13.298Z,1.80
2022-10-25T09:56:17.251Z,1.80
2022-10-25T09:57:19.281Z,2.00
2022-10-25T09:58:24.668Z,1.45
2022-10-25T09:59:28.055Z,1.80
2022-10-25T10:00:31.394Z,1.45
2022-10-25T10:01:38.479Z,1.80
2022-10-25T10:02:41.781Z,2.00
2022-10-25T10:03:48.281Z,1.30
2022-10-25T10:04:54.456Z,1.55
2022-10-25T10:06:02.021Z,1.65
2022-10-25T10:07:08.950Z,1.30
2022-10-25T10:08:13.200Z,1.30
2022-10-25T10:09:17.473Z,1.50
2022-10-25T10:10:22.542Z,1.80
2022-10-25T10:14:13.057Z,1.63
2022-10-25T10:15:22.838Z,1.30
2022-10-25T10:16:31.547Z,1.40
2022-10-25T10:17:34.463Z,1.70
2022-10-25T10:18:40.158Z,1.48
2022-10-25T10:19:43.966Z,1.48
2022-10-25T10:20:58.545Z,1.20
2022-10-25T10:22:04.154Z,1.25
2022-10-25T10:23:08.556Z,1.58
2022-10-25T10:24:18.734Z,1.65
2022-10-25T10:25:24.254Z,1.25
2022-10-25T10:26:32.627Z,1.15
2022-10-25T10:27:35.638Z,1.30
2022-10-25T10:28:37.843Z,1.88
2022-10-25T10:29:59.896Z,1.10
2022-10-25T10:31:04.692Z,1.30
2022-10-25T10:32:22.976Z,1.38
2022-10-25T10:33:33.670Z,2.00
2022-10-25T10:34:42.694Z,1.40
2022-10-25T10:35:44.635Z,1.63
2022-10-25T10:36:50.028Z,1.35
2022-10-25T10:37:51.933Z,1.35
2022-10-25T10:38:55.217Z,1.20
2022-10-25T10:39:59.998Z,1.63
2022-10-25T10:41:21.490Z,1.05
2022-10-25T10:42:33.314Z,1.35
2022-10-25T10:43:35.313Z,1.25
2022-10-25T10:44:38.217Z,1.73
2022-10-25T10:45:49.777Z,1.05
2022-10-25T10:46:54.777Z,1.30
2022-10-25T10:47:58.959Z,1.20
2022-10-25T10:49:03.925Z,1.10
2022-10-25T10:50:13.441Z,1.13
2022-10-25T10:52:47.699Z,1.05
2022-10-25T10:53:50.972Z,1.20
2022-10-25T10:54:53.063Z,1.30
2022-10-25T10:55:59.209Z,0.90
2022-10-25T10:57:03.816Z,1.17
2022-10-25T10:58:12.034Z,1.20
2022-10-25T10:59:43.883Z,0.98
2022-10-25T11:00:50.498Z,1.02
2022-10-25T11:01:53.765Z,1.05
2022-10-25T11:04:04.934Z,1.17
2022-10-25T11:05:24.390Z,1.10
2022-10-25T11:06:29.289Z,1.40
2022-10-25T11:07:34.256Z,1.15
2022-10-25T11:08:37.161Z,1.25
2022-10-25T11:09:39.106Z,1.02
2022-10-25T11:10:42.354Z,0.90
2022-10-25T11:12:05.530Z,1.10
2022-10-25T11:13:14.073Z,1.00
2022-10-25T11:14:19.937Z,1.05
2022-10-25T11:15:22.067Z,2.38
2022-10-25T11:16:40.389Z,1.70
2022-10-25T11:17:48.315Z,0.98
2022-10-25T11:19:03.606Z,1.00
2022-10-25T11:20:24.677Z,0.90
2022-10-25T11:21:40.447Z,1.10
2022-10-25T11:22:53.395Z,1.20
2022-10-25T11:24:06.207Z,0.70
2022-10-25T11:25:22.400Z,1.00
2022-10-25T11:26:33.598Z,1.15
2022-10-25T11:27:50.551Z,1.20
2022-10-25T11:29:01.856Z,0.90
2022-10-25T11:30:11.470Z,0.60
2022-10-25T11:31:24.854Z,1.40
2022-10-25T11:33:03.221Z,1.45
2022-10-25T11:34:16.754Z,0.98
2022-10-25T11:35:39.092Z,1.50
2022-10-25T11:36:51.611Z,1.10
2022-10-25T11:37:59.347Z,1.10
2022-10-25T11:39:10.158Z,1.13
2022-10-25T11:40:17.461Z,0.95
2022-10-25T11:41:33.076Z,0.70
2022-10-25T11:43:10.470Z,0.98
2022-10-25T11:44:46.917Z,0.75
2022-10-25T11:46:00.582Z,0.70
2022-10-25T11:47:09.909Z,0.82
2022-10-25T11:48:39.156Z,0.68
2022-10-25T11:49:56.971Z,0.80
2022-10-25T11:51:06.605Z,0.73
2022-10-25T11:52:37.420Z,0.60
2022-10-25T11:53:58.213Z,0.70
2022-10-25T11:55:17.999Z,1.10
2022-10-25T11:56:27.991Z,1.23
2022-10-25T11:57:40.898Z,1.15
2022-10-25T11:58:54.769Z,0.93
2022-10-25T12:00:04.004Z,1.33
2022-10-25T12:01:19.778Z,0.70
2022-10-25T12:02:43.017Z,0.88
2022-10-25T12:04:01.017Z,1.05
2022-10-25T12:05:18.565Z,0.77
2022-10-25T12:06:31.380Z,0.60
2022-10-25T12:07:41.928Z,1.00
2022-10-25T12:08:53.746Z,1.10
2022-10-25T12:10:07.592Z,1.00
2022-10-25T12:11:17.929Z,1.00
2022-10-25T12:12:27.250Z,0.60
2022-10-25T12:13:32.366Z,0.80
2022-10-25T12:14:41.762Z,1.33
2022-10-25T12:15:46.995Z,1.50
2022-10-25T12:16:51.132Z,0.70
2022-10-25T12:17:54.806Z,1.05
2022-10-25T12:19:05.986Z,0.80
2022-10-25T12:20:18.761Z,0.98
2022-10-25T12:21:27.158Z,1.15
2022-10-25T12:24:06.281Z,1.80
2022-10-25T12:25:16.259Z,0.88
2022-10-25T12:26:25.494Z,1.00
2022-10-25T12:27:29.621Z,1.30
2022-10-25T12:28:43.485Z,1.08
2022-10-25T12:29:51.957Z,0.90
2022-10-25T12:31:00.680Z,1.15
2022-10-25T12:32:06.130Z,1.00
2022-10-25T12:33:18.545Z,1.20
2022-10-25T12:34:26.552Z,0.60
2022-10-25T12:35:32.089Z,1.00
2022-10-25T12:36:38.135Z,0.80
2022-10-25T12:37:45.085Z,1.60
2022-10-25T12:38:50.418Z,2.88
2022-10-25T12:39:53.745Z,2.28
2022-10-25T12:41:02.666Z,2.65
2022-10-25T12:42:12.867Z,1.00
2022-10-25T12:43:22.069Z,1.40
2022-10-25T12:44:38.508Z,1.30
2022-10-25T12:46:02.678Z,0.88
2022-10-25T12:47:19.600Z,1.20
2022-10-25T12:48:59.728Z,1.75
2022-10-25T12:50:23.021Z,1.20
2022-10-25T12:51:43.402Z,1.30
2022-10-25T12:53:17.833Z,1.33
2022-10-25T12:54:58.098Z,1.10
2022-10-25T12:56:05.146Z,1.23
2022-10-25T12:57:17.692Z,1.00
2022-10-25T12:58:48.381Z,1.30
2022-10-25T13:00:02.454Z,1.20
2022-10-25T13:01:23.592Z,1.00
2022-10-25T13:02:56.546Z,1.02
2022-10-25T13:04:23.578Z,1.35
2022-10-25T13:06:02.298Z,1.40
2022-10-25T13:07:07.594Z,1.10
2022-10-25T13:08:12.350Z,1.50
2022-10-25T13:09:16.462Z,1.20
2022-10-25T13:10:23.174Z,1.33
2022-10-25T13:11:33.762Z,1.20
2022-10-25T13:12:36.714Z,1.20
2022-10-25T13:13:41.307Z,1.33
2022-10-25T13:14:46.446Z,1.23
2022-10-25T13:15:50.942Z,1.30
2022-10-25T13:17:33.431Z,1.00
2022-10-25T13:18:45.185Z,1.13
2022-10-25T13:19:55.829Z,1.00
2022-10-25T13:20:59.850Z,0.90
2022-10-25T13:22:30.658Z,1.23
2022-10-25T13:24:02.817Z,0.98
2022-10-25T13:25:17.125Z,1.25
2022-10-25T13:26:20.501Z,1.02
2022-10-25T13:27:25.036Z,1.13
2022-10-25T13:28:35.243Z,0.73
2022-10-25T13:29:49.505Z,1.30
2022-10-25T13:31:30.781Z,1.00
2022-10-25T13:32:36.234Z,1.27
2022-10-25T13:33:39.165Z,1.35
2022-10-25T13:34:42.073Z,1.10
2022-10-25T13:36:02.280Z,1.50
2022-10-25T13:37:27.620Z,1.17
2022-10-25T13:38:38.073Z,1.50
2022-10-25T13:39:45.635Z,1.80
2022-10-25T13:41:14.017Z,2.20
2022-10-25T13:42:24.985Z,1.90
2022-10-25T13:43:27.941Z,1.85
2022-10-25T13:44:30.291Z,1.98
2022-10-25T13:45:40.784Z,1.85
2022-10-25T13:46:43.806Z,1.05
2022-10-25T13:47:50.221Z,1.45
2022-10-25T13:48:54.773Z,1.35
2022-10-25T13:49:57.937Z,1.13
2022-10-25T13:51:02.216Z,1.17
2022-10-25T13:52:07.800Z,0.82
2022-10-25T13:53:19.589Z,1.20
2022-10-25T13:54:23.090Z,1.10
2022-10-25T13:55:26.646Z,1.65
2022-10-25T13:56:38.194Z,1.13
2022-10-25T13:57:49.377Z,1.10
2022-10-25T13:58:53.763Z,1.20
2022-10-25T14:00:01.131Z,1.25
2022-10-25T14:01:37.267Z,1.13
2022-10-25T14:03:23.041Z,1.33
2022-10-25T14:04:38.218Z,0.95
2022-10-25T14:06:23.905Z,1.20
2022-10-25T14:07:49.290Z,1.00
2022-10-25T14:08:59.777Z,0.90
2022-10-25T14:10:04.693Z,1.08
2022-10-25T14:11:09.390Z,1.30
2022-10-25T14:12:19.414Z,0.90
2022-10-25T14:13:26.891Z,1.05
2022-10-25T14:14:32.674Z,1.10
2022-10-25T14:15:45.122Z,1.08
2022-10-25T14:17:01.588Z,0.90
2022-10-25T14:18:17.855Z,0.95
2022-10-25T14:19:24.842Z,0.90
2022-10-25T14:20:29.300Z,0.95
2022-10-25T14:21:33.233Z,1.58
2022-10-25T14:22:38.581Z,0.93
2022-10-25T14:23:42.555Z,1.40
2022-10-25T14:24:47.782Z,1.55
2022-10-25T14:25:54.423Z,1.13
2022-10-25T14:26:59.251Z,1.45
2022-10-25T14:28:16.994Z,1.10
2022-10-25T14:30:32.007Z,1.52
2022-10-25T14:31:34.928Z,1.27
2022-10-25T14:32:37.076Z,1.30
2022-10-25T14:33:46.442Z,1.25
2022-10-25T14:34:51.240Z,1.05
2022-10-25T14:35:56.549Z,1.33
2022-10-25T14:36:59.861Z,1.13
2022-10-25T14:38:02.709Z,1.10
2022-10-25T14:39:17.069Z,1.30
2022-10-25T14:40:22.887Z,1.40
2022-10-25T14:41:27.244Z,1.10
2022-10-25T14:42:29.136Z,1.00
2022-10-25T14:43:34.092Z,1.08
2022-10-25T14:44:46.922Z,1.40
2022-10-25T14:45:56.694Z,2.20
2022-10-25T14:47:01.189Z,1.10
2022-10-25T14:48:08.885Z,0.88
2022-10-25T14:49:13.219Z,1.10
2022-10-25T14:50:16.078Z,1.30
2022-10-25T14:51:22.020Z,0.93
2022-10-25T14:52:24.851Z,0.95
2022-10-25T14:53:28.520Z,1.10
2022-10-25T14:54:33.690Z,1.05
2022-10-25T14:55:36.676Z,1.40
2022-10-25T14:56:43.535Z,1.40
2022-10-25T14:57:46.678Z,0.88
2022-10-25T14:58:49.890Z,1.33
2022-10-25T15:01:04.798Z,0.80
2022-10-25T15:02:16.945Z,0.90
2022-10-25T15:03:18.929Z,1.20
2022-10-25T15:04:30.399Z,0.98
2022-10-25T15:05:32.396Z,0.90
2022-10-25T15:06:35.337Z,1.13
2022-10-25T15:07:42.588Z,1.10